Time;durP1;ratioP1;P1;durP2;ratioP2;P2;SDS_P1;SDS_P2;PMS_P1;PMS_P2;Temp;Humidity;BMP_temperature;BMP_pressure;BME280_temperature;BME280_humidity;BME280_pressure;Samples;Min_cycle;Max_cycle;Signal;HPM_P1;HPM_P2
2021/10/17 00:02:10;;;;;;;;;;;;;;;;;;5071029;28;19913;-81
2021/10/17 00:04:36;;;;;;;;;;;;;;;;;;5070889;28;20019;-81
2021/10/17 00:07:01;;;;;;;;;;;;;;;;;;5058868;28;19917;-81
2021/10/17 00:09:26;;;;;;;;;;;;;;;;;;5054307;28;19921;-81
2021/10/17 00:11:52;;;;;;;;;;;;;;;;;;5057186;28;19970;-81
2021/10/17 00:14:17;;;;;;;;;;;;;;;;;;5057560;28;19968;-82
2021/10/17 00:16:42;;;;;;;;;;;;;;;;;;5073692;28;19930;-82
2021/10/17 00:19:08;;;;;;;;;;;;;;;;;;5061080;28;19917;-81
2021/10/17 00:21:33;;;;;;;;;;;;;;;;;;5057228;28;19923;-80
2021/10/17 00:23:58;;;;;;;;;;;;;;;;;;5041324;28;19923;-81
2021/10/17 00:26:24;;;;;;;;;;;;;;;;;;5057433;28;19927;-81
2021/10/17 00:28:49;;;;;;;;;;;;;;;;;;5057735;28;19923;-81
2021/10/17 00:31:14;;;;;;;;;;;;;;;;;;5057752;28;19967;-81
2021/10/17 00:33:39;;;;;;;;;;;;;;;;;;5057932;28;19944;-82
2021/10/17 00:36:05;;;;;;;;;;;;;;;;;;5057044;28;19916;-81
2021/10/17 00:38:30;;;;;;;;;;;;;;;;;;5057356;28;20289;-81
2021/10/17 00:40:56;;;;;;;;;;;;;;;;;;5072566;28;19923;-81
2021/10/17 00:43:21;;;;;;;;;;;;;;;;;;5077948;28;19916;-81
2021/10/17 00:45:47;;;;;;;;;;;;;;;;;;5073728;28;20336;-81
2021/10/17 00:48:12;;;;;;;;;;;;;;;;;;5040590;28;20363;-83
2021/10/17 00:50:38;;;;;;;;;;;;;;;;;;5067132;28;19920;-81
2021/10/17 00:53:03;;;;;;;;;;;;;;;;;;5073879;28;19955;-81
2021/10/17 00:55:29;;;;;;;;;;;;;;;;;;5065324;28;19948;-81
2021/10/17 00:57:54;;;;;;;;;;;;;;;;;;5073060;28;19921;-81
2021/10/17 01:00:20;;;;;;;;;;;;;;;;;;5066222;28;19924;-81
2021/10/17 01:02:45;;;;;;;;;;;;;;;;;;5058856;28;19969;-81
2021/10/17 01:05:16;;;;;;;;;;;;;;;;;;5049333;28;19916;-80
2021/10/17 01:07:42;;;;;;;;;;;;;;;;;;5056464;28;19917;-81
2021/10/17 01:10:07;;;;;;;;;;;;;;;;;;5073625;28;19917;-81
2021/10/17 01:12:33;;;;;;;;;;;;;;;;;;5056746;28;19915;-80
2021/10/17 01:14:58;;;;;;;;;;;;;;;;;;5057043;28;20259;-83
2021/10/17 01:17:23;;;;;;;;;;;;;;;;;;5075069;28;19916;-83
2021/10/17 01:19:49;;;;;;;;;;;;;;;;;;5053395;28;19947;-83
2021/10/17 01:22:14;;;;;;;;;;;;;;;;;;5056927;28;19970;-80
2021/10/17 01:24:40;;;;;;;;;;;;;;;;;;5058557;28;19924;-81
2021/10/17 01:27:05;;;;;;;;;;;;;;;;;;5056323;28;20298;-81
2021/10/17 01:29:30;;;;;;;;;;;;;;;;;;5073955;28;19912;-81
2021/10/17 01:31:56;;;;;;;;;;;;;;;;;;5073641;28;19916;-81
2021/10/17 01:34:22;;;;;;;;;;;;;;;;;;5073024;28;19950;-82
2021/10/17 01:36:47;;;;;;;;;;;;;;;;;;5057614;28;19920;-81
2021/10/17 01:39:13;;;;;;;;;;;;;;;;;;5056517;28;19912;-81
2021/10/17 01:41:38;;;;;;;;;;;;;;;;;;5056118;28;20390;-81
2021/10/17 01:44:05;;;;;;;;;;;;;;;;;;5040100;28;19920;-82
2021/10/17 01:46:30;;;;;;;;;;;;;;;;;;5041959;28;19966;-81
2021/10/17 01:48:56;;;;;;;;;;;;;;;;;;5055943;28;20030;-81
2021/10/17 01:51:21;;;;;;;;;;;;;;;;;;5056542;28;19916;-81
2021/10/17 01:53:46;;;;;;;;;;;;;;;;;;5040524;28;20394;-81
2021/10/17 01:56:12;;;;;;;;;;;;;;;;;;5071752;28;20311;-81
2021/10/17 01:58:37;;;;;;;;;;;;;;;;;;5072113;28;19950;-81
2021/10/17 02:01:02;;;;;;;;;;;;;;;;;;5073733;28;19939;-81
2021/10/17 02:03:28;;;;;;;;;;;;;;;;;;5069780;28;19925;-81
2021/10/17 02:05:53;;;;;;;;;;;;;;;;;;5060913;28;19923;-81
2021/10/17 02:08:18;;;;;;;;;;;;;;;;;;5087677;28;19974;-81
2021/10/17 02:10:44;;;;;;;;;;;;;;;;;;5072637;28;19923;-81
2021/10/17 02:13:09;;;;;;;;;;;;;;;;;;5055848;28;20382;-81
2021/10/17 02:15:34;;;;;;;;;;;;;;;;;;5070758;28;20011;-81
2021/10/17 02:18:00;;;;;;;;;;;;;;;;;;5069759;28;19923;-81
2021/10/17 02:20:25;;;;;;;;;;;;;;;;;;5047837;28;19916;-81
2021/10/17 02:22:50;;;;;;;;;;;;;;;;;;5058122;28;19950;-81
2021/10/17 02:25:16;;;;;;;;;;;;;;;;;;5066020;28;20337;-81
2021/10/17 02:27:41;;;;;;;;;;;;;;;;;;5055466;28;19921;-81
2021/10/17 02:30:07;;;;;;;;;;;;;;;;;;5055503;28;19916;-81
2021/10/17 02:32:35;;;;;;;;;;;;;;;;;;5038256;28;19920;-81
2021/10/17 02:35:01;;;;;;;;;;;;;;;;;;5043479;28;19917;-81
2021/10/17 02:37:27;;;;;;;;;;;;;;;;;;5056347;28;19940;-81
2021/10/17 02:39:52;;;;;;;;;;;;;;;;;;5056188;28;19940;-81
2021/10/17 02:42:17;;;;;;;;;;;;;;;;;;5068283;28;20148;-81
2021/10/17 02:44:43;;;;;;;;;;;;;;;;;;5038608;28;19953;-81
2021/10/17 02:47:08;;;;;;;;;;;;;;;;;;5054521;28;19917;-81
2021/10/17 02:49:33;;;;;;;;;;;;;;;;;;5056714;28;19923;-83
2021/10/17 02:51:59;;;;;;;;;;;;;;;;;;5071065;28;19922;-83
2021/10/17 02:54:24;;;;;;;;;;;;;;;;;;5057933;28;19920;-83
2021/10/17 02:56:50;;;;;;;;;;;;;;;;;;5074737;28;20023;-81
2021/10/17 02:59:15;;;;;;;;;;;;;;;;;;5062594;28;19920;-80
2021/10/17 03:01:40;;;;;;;;;;;;;;;;;;5054555;28;19916;-82
2021/10/17 03:04:06;;;;;;;;;;;;;;;;;;5038189;28;20278;-81
2021/10/17 03:06:31;;;;;;;;;;;;;;;;;;5068861;28;19982;-81
2021/10/17 03:08:57;;;;;;;;;;;;;;;;;;5056273;28;19965;-81
2021/10/17 03:11:22;;;;;;;;;;;;;;;;;;5054660;28;19921;-81
2021/10/17 03:13:48;;;;;;;;;;;;;;;;;;5075012;28;19955;-81
2021/10/17 03:16:13;;;;;;;;;;;;;;;;;;5039155;28;19912;-81
2021/10/17 03:18:38;;;;;;;;;;;;;;;;;;5057881;28;19928;-81
2021/10/17 03:21:04;;;;;;;;;;;;;;;;;;5055728;28;19917;-81
2021/10/17 03:23:29;;;;;;;;;;;;;;;;;;5054706;28;19924;-81
2021/10/17 03:25:54;;;;;;;;;;;;;;;;;;5071216;28;20288;-81
2021/10/17 03:28:20;;;;;;;;;;;;;;;;;;5071202;28;19920;-81
2021/10/17 03:30:45;;;;;;;;;;;;;;;;;;5070635;28;19926;-81
2021/10/17 03:33:10;;;;;;;;;;;;;;;;;;5078080;28;19922;-81
2021/10/17 03:35:36;;;;;;;;;;;;;;;;;;5054594;28;20389;-81
2021/10/17 03:38:02;;;;;;;;;;;;;;;;;;5065964;28;19912;-80
2021/10/17 03:40:27;;;;;;;;;;;;;;;;;;5074384;28;19921;-81
2021/10/17 03:42:53;;;;;;;;;;;;;;;;;;5072752;28;19924;-81
2021/10/17 03:45:18;;;;;;;;;;;;;;;;;;5054217;28;19923;-81
2021/10/17 03:47:43;;;;;;;;;;;;;;;;;;5061137;28;19913;-81
2021/10/17 03:50:09;;;;;;;;;;;;;;;;;;5054391;28;20014;-81
2021/10/17 03:52:34;;;;;;;;;;;;;;;;;;5055310;28;19920;-82
2021/10/17 03:54:59;;;;;;;;;;;;;;;;;;5040263;28;19916;-81
2021/10/17 03:57:25;;;;;;;;;;;;;;;;;;5059268;28;20349;-81
2021/10/17 03:59:50;;;;;;;;;;;;;;;;;;5070352;28;19939;-81
2021/10/17 04:02:15;;;;;;;;;;;;;;;;;;5088244;28;20008;-81
2021/10/17 04:04:40;;;;;;;;;;;;;;;;;;5065978;28;19997;-81
2021/10/17 04:07:06;;;;;;;;;;;;;;;;;;5050488;28;19966;-80
2021/10/17 04:09:32;;;;;;;;;;;;;;;;;;5054190;28;19919;-81
2021/10/17 04:11:57;;;;;;;;;;;;;;;;;;5054204;28;20274;-81
2021/10/17 04:14:22;;;;;;;;;;;;;;;;;;5041003;28;19924;-83
2021/10/17 04:16:48;;;;;;;;;;;;;;;;;;5053457;28;19920;-84
2021/10/17 04:19:13;;;;;;;;;;;;;;;;;;5070641;28;19919;-83
2021/10/17 04:21:38;;;;;;;;;;;;;;;;;;5076768;28;20324;-83
2021/10/17 04:24:04;;;;;;;;;;;;;;;;;;5057187;28;19955;-83
2021/10/17 04:26:30;;;;;;;;;;;;;;;;;;5062960;28;19963;-83
2021/10/17 04:28:55;;;;;;;;;;;;;;;;;;5037060;28;20027;-83
2021/10/17 04:31:20;;;;;;;;;;;;;;;;;;5056273;28;19912;-83
2021/10/17 04:33:45;;;;;;;;;;;;;;;;;;5053794;28;19943;-83
2021/10/17 04:36:11;;;;;;;;;;;;;;;;;;5059743;28;19912;-81
2021/10/17 04:38:38;;;;;;;;;;;;;;;;;;5073885;28;19922;-81
2021/10/17 04:41:03;;;;;;;;;;;;;;;;;;5053615;28;19923;-81
2021/10/17 04:43:30;;;;;;;;;;;;;;;;;;5068782;28;19924;-81
2021/10/17 04:45:55;;;;;;;;;;;;;;;;;;5073621;28;19916;-81
2021/10/17 04:48:20;;;;;;;;;;;;;;;;;;5073621;28;19974;-83
2021/10/17 04:50:47;;;;;;;;;;;;;;;;;;5043749;28;19913;-82
2021/10/17 04:53:12;;;;;;;;;;;;;;;;;;5053731;28;19917;-82
2021/10/17 04:55:37;;;;;;;;;;;;;;;;;;5070503;28;19924;-81
2021/10/17 04:58:04;;;;;;;;;;;;;;;;;;5069321;28;19920;-82
2021/10/17 05:00:31;;;;;;;;;;;;;;;;;;5070133;28;20293;-82
2021/10/17 05:02:57;;;;;;;;;;;;;;;;;;5069898;28;19919;-84
2021/10/17 05:05:23;;;;;;;;;;;;;;;;;;5090198;28;20035;-84
2021/10/17 05:07:48;;;;;;;;;;;;;;;;;;5073764;28;20007;-83
2021/10/17 05:10:13;;;;;;;;;;;;;;;;;;5074048;28;19918;-84
2021/10/17 05:12:40;;;;;;;;;;;;;;;;;;5089684;28;19963;-85
2021/10/17 05:15:05;;;;;;;;;;;;;;;;;;5062399;28;19970;-83
2021/10/17 05:17:30;;;;;;;;;;;;;;;;;;5073428;28;20382;-87
2021/10/17 05:19:59;;;;;;;;;;;;;;;;;;5059740;28;19923;-87
2021/10/17 05:22:26;;;;;;;;;;;;;;;;;;5054927;28;19912;-86
2021/10/17 05:24:51;;;;;;;;;;;;;;;;;;5071533;28;19917;-85
2021/10/17 05:27:18;;;;;;;;;;;;;;;;;;5073219;28;20016;-86
2021/10/17 05:29:44;;;;;;;;;;;;;;;;;;5056285;28;19912;-85
2021/10/17 05:32:11;;;;;;;;;;;;;;;;;;5073655;28;19913;-85
2021/10/17 05:34:36;;;;;;;;;;;;;;;;;;5060033;28;19966;-85
2021/10/17 05:37:02;;;;;;;;;;;;;;;;;;5060199;28;19916;-87
2021/10/17 05:39:28;;;;;;;;;;;;;;;;;;5060310;28;20282;-87
2021/10/17 05:41:55;;;;;;;;;;;;;;;;;;5076238;28;19916;-86
2021/10/17 05:44:20;;;;;;;;;;;;;;;;;;5062875;28;19938;-86
2021/10/17 05:46:46;;;;;;;;;;;;;;;;;;5056270;28;19916;-86
2021/10/17 05:49:11;;;;;;;;;;;;;;;;;;5040296;28;19916;-82
2021/10/17 05:51:36;;;;;;;;;;;;;;;;;;5056529;28;20003;-83
2021/10/17 05:54:02;;;;;;;;;;;;;;;;;;5058387;28;20452;-83
2021/10/17 05:56:27;;;;;;;;;;;;;;;;;;5055790;28;19971;-82
2021/10/17 05:58:52;;;;;;;;;;;;;;;;;;5089599;28;19951;-82
2021/10/17 06:01:18;;;;;;;;;;;;;;;;;;5089796;28;19912;-82
2021/10/17 06:03:44;;;;;;;;;;;;;;;;;;5039789;28;19919;-86
2021/10/17 06:06:18;;;;;;;;;;;;;;;;;;5075305;28;19916;-88
2021/10/17 06:08:46;;;;;;;;;;;;;;;;;;5089462;28;19912;-88
2021/10/17 06:11:11;;;;;;;;;;;;;;;;;;5045414;28;19965;-88
2021/10/17 06:13:39;;;;;;;;;;;;;;;;;;5057042;28;19916;-86
2021/10/17 06:16:04;;;;;;;;;;;;;;;;;;5056605;28;19916;-87
2021/10/17 06:18:31;;;;;;;;;;;;;;;;;;5072405;28;19961;-86
2021/10/17 06:20:57;;;;;;;;;;;;;;;;;;5076951;28;19916;-85
2021/10/17 06:23:22;;;;;;;;;;;;;;;;;;5041049;28;19970;-81
2021/10/17 06:25:48;;;;;;;;;;;;;;;;;;5076008;28;19951;-82
2021/10/17 06:28:14;;;;;;;;;;;;;;;;;;5058139;28;20387;-86
2021/10/17 06:30:39;;;;;;;;;;;;;;;;;;5039194;28;19917;-86
2021/10/17 06:33:06;;;;;;;;;;;;;;;;;;5072592;28;20377;-85
2021/10/17 06:35:31;;;;;;;;;;;;;;;;;;5058723;28;19916;-84
2021/10/17 06:37:56;;;;;;;;;;;;;;;;;;5071246;28;19923;-84
2021/10/17 06:40:22;;;;;;;;;;;;;;;;;;5047587;28;19921;-83
2021/10/17 06:42:47;;;;;;;;;;;;;;;;;;5047430;28;19966;-83
2021/10/17 06:45:12;;;;;;;;;;;;;;;;;;5048208;28;19921;-82
2021/10/17 06:47:38;;;;;;;;;;;;;;;;;;5072710;28;20235;-83
2021/10/17 06:50:03;;;;;;;;;;;;;;;;;;5074713;28;19912;-82
2021/10/17 06:52:29;;;;;;;;;;;;;;;;;;5057482;28;19912;-83
2021/10/17 06:54:54;;;;;;;;;;;;;;;;;;5073388;28;19969;-83
2021/10/17 06:57:20;;;;;;;;;;;;;;;;;;5057498;28;19927;-83
2021/10/17 06:59:45;;;;;;;;;;;;;;;;;;5075197;28;19924;-83
2021/10/17 07:02:10;;;;;;;;;;;;;;;;;;5057397;28;19984;-83
2021/10/17 07:04:36;;;;;;;;;;;;;;;;;;5073700;28;19920;-83
2021/10/17 07:07:01;;;;;;;;;;;;;;;;;;5049865;28;19923;-83
2021/10/17 07:09:26;;;;;;;;;;;;;;;;;;5080724;28;19940;-83
2021/10/17 07:11:52;;;;;;;;;;;;;;;;;;5057902;28;19958;-83
2021/10/17 07:14:17;;;;;;;;;;;;;;;;;;5074719;28;19916;-83
2021/10/17 07:16:43;;;;;;;;;;;;;;;;;;5058121;28;19965;-83
2021/10/17 07:19:08;;;;;;;;;;;;;;;;;;5057810;28;19966;-83
2021/10/17 07:21:33;;;;;;;;;;;;;;;;;;5074908;28;19916;-83
2021/10/17 07:23:59;;;;;;;;;;;;;;;;;;5073478;28;19916;-83
2021/10/17 07:26:24;;;;;;;;;;;;;;;;;;5054341;28;19964;-83
2021/10/17 07:28:49;;;;;;;;;;;;;;;;;;5057735;28;20007;-83
2021/10/17 07:31:15;;;;;;;;;;;;;;;;;;5055246;28;19917;-82
2021/10/17 07:33:41;;;;;;;;;;;;;;;;;;5070800;28;19919;-83
2021/10/17 07:36:07;;;;;;;;;;;;;;;;;;5054716;28;19920;-84
2021/10/17 07:38:32;;;;;;;;;;;;;;;;;;5059885;28;19916;-83
2021/10/17 07:40:57;;;;;;;;;;;;;;;;;;5073925;28;19965;-84
2021/10/17 07:43:23;;;;;;;;;;;;;;;;;;5074120;28;20263;-83
2021/10/17 07:45:48;;;;;;;;;;;;;;;;;;5057758;28;19916;-83
2021/10/17 07:48:14;;;;;;;;;;;;;;;;;;5074375;28;19912;-84
2021/10/17 07:50:39;;;;;;;;;;;;;;;;;;5053204;28;19920;-84
2021/10/17 07:53:04;;;;;;;;;;;;;;;;;;5054462;28;20432;-84
2021/10/17 07:55:30;;;;;;;;;;;;;;;;;;5073734;28;20336;-85
2021/10/17 07:57:55;;;;;;;;;;;;;;;;;;5073970;28;19920;-85
2021/10/17 08:00:22;;;;;;;;;;;;;;;;;;5073747;28;19916;-85
2021/10/17 08:02:48;;;;;;;;;;;;;;;;;;5055273;28;19916;-83
2021/10/17 08:05:14;;;;;;;;;;;;;;;;;;5051446;28;19922;-85
2021/10/17 08:07:40;;;;;;;;;;;;;;;;;;5037145;28;19916;-85
2021/10/17 08:10:06;;;;;;;;;;;;;;;;;;5037451;28;19919;-85
2021/10/17 08:12:31;;;;;;;;;;;;;;;;;;5037571;28;20313;-86
2021/10/17 08:15:00;;;;;;;;;;;;;;;;;;5037376;28;19916;-86
2021/10/17 08:17:26;;;;;;;;;;;;;;;;;;5055167;28;19912;-86
2021/10/17 08:19:54;;;;;;;;;;;;;;;;;;5074075;28;19959;-87
2021/10/17 08:22:20;;;;;;;;;;;;;;;;;;5057561;28;20014;-86
2021/10/17 08:24:45;;;;;;;;;;;;;;;;;;5057702;28;19923;-85
2021/10/17 08:27:11;;;;;;;;;;;;;;;;;;5091458;28;20290;-85
2021/10/17 08:29:36;;;;;;;;;;;;;;;;;;5073021;28;19974;-85
2021/10/17 08:32:01;;;;;;;;;;;;;;;;;;5040754;28;19952;-84
2021/10/17 08:34:27;;;;;;;;;;;;;;;;;;5056587;28;19996;-86
2021/10/17 08:36:52;;;;;;;;;;;;;;;;;;5081361;28;19927;-85
2021/10/17 08:39:18;;;;;;;;;;;;;;;;;;5056817;28;20355;-85
2021/10/17 08:41:44;;;;;;;;;;;;;;;;;;5055898;28;19916;-86
2021/10/17 08:44:09;;;;;;;;;;;;;;;;;;5057905;28;19916;-85
2021/10/17 08:46:35;;;;;;;;;;;;;;;;;;5057852;28;20363;-84
2021/10/17 08:49:00;;;;;;;;;;;;;;;;;;5074600;28;19961;-86
2021/10/17 08:51:25;;;;;;;;;;;;;;;;;;5041147;28;19919;-86
2021/10/17 08:53:51;;;;;;;;;;;;;;;;;;5057826;28;19966;-86
2021/10/17 08:56:17;;;;;;;;;;;;;;;;;;5056489;28;19928;-85
2021/10/17 08:58:42;;;;;;;;;;;;;;;;;;5073898;28;19916;-83
2021/10/17 09:01:13;;;;;;;;;;;;;;;;;;5062813;28;20428;-83
2021/10/17 09:03:38;;;;;;;;;;;;;;;;;;5057296;28;19924;-83
2021/10/17 09:06:14;;;;;;;;;;;;;;;;;;5077260;28;19912;-82
2021/10/17 09:08:39;;;;;;;;;;;;;;;;;;5063573;28;20289;-83
2021/10/17 09:11:04;;;;;;;;;;;;;;;;;;5080163;28;19965;-83
2021/10/17 09:13:30;;;;;;;;;;;;;;;;;;5097524;28;19927;-82
2021/10/17 09:15:55;;;;;;;;;;;;;;;;;;5079624;28;19918;-82
2021/10/17 09:18:22;;;;;;;;;;;;;;;;;;5067779;28;19912;-83
2021/10/17 09:20:47;;;;;;;;;;;;;;;;;;5042424;28;19919;-83
2021/10/17 09:23:17;;;;;;;;;;;;;;;;;;5097320;28;20274;-83
2021/10/17 09:25:42;;;;;;;;;;;;;;;;;;5061933;28;19966;-82
2021/10/17 09:28:14;;;;;;;;;;;;;;;;;;5059745;28;19959;-83
2021/10/17 09:30:39;;;;;;;;;;;;;;;;;;5076588;28;19969;-82
2021/10/17 09:33:14;;;;;;;;;;;;;;;;;;5059931;28;19908;-83
2021/10/17 09:35:40;;;;;;;;;;;;;;;;;;5044891;28;19916;-83
2021/10/17 09:38:05;;;;;;;;;;;;;;;;;;5059361;28;20419;-82
2021/10/17 09:40:33;;;;;;;;;;;;;;;;;;5074882;28;19912;-83
2021/10/17 09:43:01;;;;;;;;;;;;;;;;;;5056423;28;19912;-85
2021/10/17 09:45:27;;;;;;;;;;;;;;;;;;5073576;28;19939;-84
2021/10/17 09:47:53;;;;;;;;;;;;;;;;;;5067804;28;19917;-84
2021/10/17 09:50:19;;;;;;;;;;;;;;;;;;5051945;28;19983;-84
2021/10/17 09:52:53;;;;;;;;;;;;;;;;;;5056783;28;20049;-84
2021/10/17 09:55:19;;;;;;;;;;;;;;;;;;5056953;28;20144;-85
2021/10/17 09:57:45;;;;;;;;;;;;;;;;;;5039843;28;20043;-85
2021/10/17 10:00:11;;;;;;;;;;;;;;;;;;5073186;28;19920;-84
2021/10/17 10:02:36;;;;;;;;;;;;;;;;;;5059610;28;19916;-85
2021/10/17 10:05:01;;;;;;;;;;;;;;;;;;5076782;28;19912;-84
2021/10/17 10:07:27;;;;;;;;;;;;;;;;;;5060137;28;19916;-85
2021/10/17 10:09:55;;;;;;;;;;;;;;;;;;5055475;28;19920;-84
2021/10/17 10:12:22;;;;;;;;;;;;;;;;;;5056567;28;20267;-84
2021/10/17 10:14:47;;;;;;;;;;;;;;;;;;5090989;28;19916;-83
2021/10/17 10:17:14;;;;;;;;;;;;;;;;;;5059001;28;19917;-82
2021/10/17 10:19:41;;;;;;;;;;;;;;;;;;5054893;28;19920;-86
2021/10/17 10:22:06;;;;;;;;;;;;;;;;;;5039302;28;19913;-82
2021/10/17 10:24:32;;;;;;;;;;;;;;;;;;5055742;28;19912;-82
2021/10/17 10:26:57;;;;;;;;;;;;;;;;;;5039194;28;19924;-84
2021/10/17 10:29:24;;;;;;;;;;;;;;;;;;5042203;28;19921;-84
2021/10/17 10:31:50;;;;;;;;;;;;;;;;;;5044145;28;19920;-85
2021/10/17 10:34:22;;;;;;;;;;;;;;;;;;5070655;28;19938;-85
2021/10/17 10:36:48;;;;;;;;;;;;;;;;;;5072132;28;19958;-83
2021/10/17 10:39:14;;;;;;;;;;;;;;;;;;5054528;28;20009;-83
2021/10/17 10:41:43;;;;;;;;;;;;;;;;;;5071234;28;19939;-85
2021/10/17 10:44:12;;;;;;;;;;;;;;;;;;5038887;28;19927;-84
2021/10/17 10:46:37;;;;;;;;;;;;;;;;;;5056487;28;19923;-86
2021/10/17 10:49:02;;;;;;;;;;;;;;;;;;5054986;28;19920;-83
2021/10/17 10:51:46;;;;;;;;;;;;;;;;;;5044953;28;19934;-83
2021/10/17 10:54:23;;;;;;;;;;;;;;;;;;5038800;28;20278;-83
2021/10/17 10:56:56;;;;;;;;;;;;;;;;;;5069427;28;19924;-83
2021/10/17 10:59:25;;;;;;;;;;;;;;;;;;5055836;28;19912;-83
2021/10/17 11:01:55;;;;;;;;;;;;;;;;;;5078858;28;19923;-85
2021/10/17 11:04:44;;;;;;;;;;;;;;;;;;5073439;28;19912;-84
2021/10/17 11:07:19;;;;;;;;;;;;;;;;;;5084850;28;19962;-83
2021/10/17 11:09:44;;;;;;;;;;;;;;;;;;5070318;28;19962;-83
2021/10/17 11:12:10;;;;;;;;;;;;;;;;;;5046570;28;19960;-83
2021/10/17 11:14:35;;;;;;;;;;;;;;;;;;5054639;28;19916;-83
2021/10/17 11:17:02;;;;;;;;;;;;;;;;;;5067219;28;19965;-83
2021/10/17 11:19:28;;;;;;;;;;;;;;;;;;5062810;28;19917;-83
2021/10/17 11:22:03;;;;;;;;;;;;;;;;;;5055152;28;20328;-83
2021/10/17 11:24:28;;;;;;;;;;;;;;;;;;5039778;28;20286;-83
2021/10/17 11:27:12;;;;;;;;;;;;;;;;;;5059096;28;19920;-83
2021/10/17 11:29:41;;;;;;;;;;;;;;;;;;5070904;28;20092;-83
2021/10/17 11:32:07;;;;;;;;;;;;;;;;;;5056308;28;19913;-83
2021/10/17 11:34:32;;;;;;;;;;;;;;;;;;5038063;28;19916;-83
2021/10/17 11:37:16;;;;;;;;;;;;;;;;;;5053817;28;19917;-83
2021/10/17 11:40:00;;;;;;;;;;;;;;;;;;5071284;28;20302;-83
2021/10/17 11:42:27;;;;;;;;;;;;;;;;;;5067720;28;20289;-83
2021/10/17 11:44:55;;;;;;;;;;;;;;;;;;5054360;28;19923;-83
2021/10/17 11:47:20;;;;;;;;;;;;;;;;;;5061810;28;19919;-83
2021/10/17 11:49:47;;;;;;;;;;;;;;;;;;5074425;28;19916;-83
2021/10/17 11:52:13;;;;;;;;;;;;;;;;;;5042555;28;19917;-83
2021/10/17 11:54:42;;;;;;;;;;;;;;;;;;5037369;28;19928;-83
2021/10/17 11:57:08;;;;;;;;;;;;;;;;;;5037173;28;20042;-83
2021/10/17 11:59:34;;;;;;;;;;;;;;;;;;5054228;28;19995;-83
2021/10/17 12:01:59;;;;;;;;;;;;;;;;;;5037906;28;19920;-83
2021/10/17 12:04:40;;;;;;;;;;;;;;;;;;5054290;28;19918;-82
2021/10/17 12:07:06;;;;;;;;;;;;;;;;;;5070872;28;19917;-83
2021/10/17 12:09:34;;;;;;;;;;;;;;;;;;5053637;28;19931;-82
2021/10/17 12:11:59;;;;;;;;;;;;;;;;;;5070289;28;19932;-83
2021/10/17 12:14:24;;;;;;;;;;;;;;;;;;5074264;28;19919;-83
2021/10/17 12:16:53;;;;;;;;;;;;;;;;;;5059717;28;20315;-82
2021/10/17 12:19:23;;;;;;;;;;;;;;;;;;5074545;28;19965;-83
2021/10/17 12:21:48;;;;;;;;;;;;;;;;;;5061677;28;20010;-83
2021/10/17 12:24:14;;;;;;;;;;;;;;;;;;5077732;28;19991;-83
2021/10/17 12:26:47;;;;;;;;;;;;;;;;;;5074183;28;19929;-83
2021/10/17 12:29:16;;;;;;;;;;;;;;;;;;5077939;28;19920;-83
2021/10/17 12:31:43;;;;;;;;;;;;;;;;;;5078008;28;19912;-82
2021/10/17 12:34:09;;;;;;;;;;;;;;;;;;5061146;28;19916;-83
2021/10/17 12:36:34;;;;;;;;;;;;;;;;;;5056945;28;19916;-83
2021/10/17 12:39:07;;;;;;;;;;;;;;;;;;5057520;28;19912;-83
2021/10/17 12:41:34;;;;;;;;;;;;;;;;;;5056931;28;19916;-83
2021/10/17 12:44:03;;;;;;;;;;;;;;;;;;5084213;28;19927;-83
2021/10/17 12:46:29;;;;;;;;;;;;;;;;;;5051400;28;20259;-83
2021/10/17 12:48:54;;;;;;;;;;;;;;;;;;5040622;28;19919;-83
2021/10/17 12:51:27;;;;;;;;;;;;;;;;;;5042120;28;20366;-83
2021/10/17 12:54:01;;;;;;;;;;;;;;;;;;5074392;28;19950;-83
2021/10/17 12:56:26;;;;;;;;;;;;;;;;;;5057146;28;19921;-82
2021/10/17 12:59:13;;;;;;;;;;;;;;;;;;5056908;28;19919;-83
2021/10/17 13:01:57;;;;;;;;;;;;;;;;;;5073790;28;20398;-83
2021/10/17 13:04:29;;;;;;;;;;;;;;;;;;5057511;28;19935;-82
2021/10/17 13:06:54;;;;;;;;;;;;;;;;;;5056530;28;19916;-83
2021/10/17 13:09:19;;;;;;;;;;;;;;;;;;5073889;28;19919;-83
2021/10/17 13:11:45;;;;;;;;;;;;;;;;;;5070658;28;19923;-83
2021/10/17 13:14:11;;;;;;;;;;;;;;;;;;5060733;28;20014;-83
2021/10/17 13:16:40;;;;;;;;;;;;;;;;;;5077204;28;19916;-83
2021/10/17 13:19:06;;;;;;;;;;;;;;;;;;5075125;28;19912;-83
2021/10/17 13:21:31;;;;;;;;;;;;;;;;;;5066709;28;20293;-83
2021/10/17 13:23:56;;;;;;;;;;;;;;;;;;5040280;28;19919;-83
2021/10/17 13:26:22;;;;;;;;;;;;;;;;;;5055874;28;20031;-83
2021/10/17 13:28:47;;;;;;;;;;;;;;;;;;5057715;28;19921;-83
2021/10/17 13:31:13;;;;;;;;;;;;;;;;;;5056874;28;19920;-83
2021/10/17 13:33:39;;;;;;;;;;;;;;;;;;5041973;28;20370;-83
2021/10/17 13:36:04;;;;;;;;;;;;;;;;;;5057108;28;19966;-83
2021/10/17 13:38:29;;;;;;;;;;;;;;;;;;5056842;28;19913;-83
2021/10/17 13:40:55;;;;;;;;;;;;;;;;;;5056362;28;19965;-83
2021/10/17 13:43:20;;;;;;;;;;;;;;;;;;5046827;28;19966;-83
2021/10/17 13:45:45;;;;;;;;;;;;;;;;;;5056700;28;19916;-82
2021/10/17 13:48:11;;;;;;;;;;;;;;;;;;5071790;28;20019;-83
2021/10/17 13:50:36;;;;;;;;;;;;;;;;;;5056726;28;19927;-83
2021/10/17 13:53:01;;;;;;;;;;;;;;;;;;5056636;28;20309;-83
2021/10/17 13:55:27;;;;;;;;;;;;;;;;;;5073049;28;19923;-83
2021/10/17 13:57:52;;;;;;;;;;;;;;;;;;5089695;28;19920;-83
2021/10/17 14:00:24;;;;;;;;;;;;;;;;;;5089860;28;19945;-83
2021/10/17 14:02:50;;;;;;;;;;;;;;;;;;5073012;28;19919;-83
2021/10/17 14:05:15;;;;;;;;;;;;;;;;;;5089806;28;19966;-83
2021/10/17 14:07:41;;;;;;;;;;;;;;;;;;5070375;28;20341;-83
2021/10/17 14:10:06;;;;;;;;;;;;;;;;;;5055971;28;19912;-83
2021/10/17 14:12:33;;;;;;;;;;;;;;;;;;5072374;28;20320;-83
2021/10/17 14:14:59;;;;;;;;;;;;;;;;;;5055686;28;19920;-83
2021/10/17 14:17:24;;;;;;;;;;;;;;;;;;5072265;28;20347;-83
2021/10/17 14:19:49;;;;;;;;;;;;;;;;;;5055348;28;19924;-83
2021/10/17 14:22:15;;;;;;;;;;;;;;;;;;5071739;28;19920;-82
2021/10/17 14:24:40;;;;;;;;;;;;;;;;;;5055917;28;19919;-83
2021/10/17 14:27:05;;;;;;;;;;;;;;;;;;5054569;28;19921;-82
2021/10/17 14:29:31;;;;;;;;;;;;;;;;;;5038972;28;19920;-83
2021/10/17 14:31:56;;;;;;;;;;;;;;;;;;5041734;28;19939;-83
2021/10/17 14:34:21;;;;;;;;;;;;;;;;;;5070641;28;19939;-83
2021/10/17 14:36:47;;;;;;;;;;;;;;;;;;5038252;28;19920;-83
2021/10/17 14:39:13;;;;;;;;;;;;;;;;;;5055484;28;19912;-83
2021/10/17 14:41:39;;;;;;;;;;;;;;;;;;5064267;28;20378;-82
2021/10/17 14:44:06;;;;;;;;;;;;;;;;;;5076022;28;19918;-83
2021/10/17 14:46:32;;;;;;;;;;;;;;;;;;5059190;28;19961;-84
2021/10/17 14:48:57;;;;;;;;;;;;;;;;;;5072785;28;19927;-81
2021/10/17 14:51:24;;;;;;;;;;;;;;;;;;5072788;28;19916;-84
2021/10/17 14:53:50;;;;;;;;;;;;;;;;;;5040140;28;20375;-82
2021/10/17 14:56:16;;;;;;;;;;;;;;;;;;5054981;28;19978;-83
2021/10/17 14:58:41;;;;;;;;;;;;;;;;;;5055477;28;19919;-80
2021/10/17 15:01:09;;;;;;;;;;;;;;;;;;5075909;28;19934;-86
2021/10/17 15:03:36;;;;;;;;;;;;;;;;;;5078320;28;19923;-86
2021/10/17 15:06:02;;;;;;;;;;;;;;;;;;5058691;28;19912;-85
2021/10/17 15:08:29;;;;;;;;;;;;;;;;;;5054751;28;19917;-85
2021/10/17 15:10:55;;;;;;;;;;;;;;;;;;5055641;28;19917;-84
2021/10/17 15:13:20;;;;;;;;;;;;;;;;;;5054451;28;19916;-83
2021/10/17 15:15:45;;;;;;;;;;;;;;;;;;5054112;28;20389;-85
2021/10/17 15:18:12;;;;;;;;;;;;;;;;;;5087378;28;19955;-85
2021/10/17 15:20:38;;;;;;;;;;;;;;;;;;5057989;28;19980;-85
2021/10/17 15:23:05;;;;;;;;;;;;;;;;;;5058545;28;19965;-85
2021/10/17 15:25:30;;;;;;;;;;;;;;;;;;5058641;28;20005;-85
2021/10/17 15:27:56;;;;;;;;;;;;;;;;;;5054064;28;19978;-85
2021/10/17 15:30:23;;;;;;;;;;;;;;;;;;5071152;28;19916;-86
2021/10/17 15:32:49;;;;;;;;;;;;;;;;;;5054147;28;19916;-86
2021/10/17 15:35:17;;;;;;;;;;;;;;;;;;5071521;28;19912;-85
2021/10/17 15:37:43;;;;;;;;;;;;;;;;;;5064843;28;19917;-84
2021/10/17 15:40:08;;;;;;;;;;;;;;;;;;5038118;28;19923;-84
2021/10/17 15:42:34;;;;;;;;;;;;;;;;;;5051635;28;19912;-85
2021/10/17 15:44:59;;;;;;;;;;;;;;;;;;5038283;28;19916;-84
2021/10/17 15:47:26;;;;;;;;;;;;;;;;;;5043190;28;19916;-85
2021/10/17 15:49:51;;;;;;;;;;;;;;;;;;5054191;28;19916;-85
2021/10/17 15:52:18;;;;;;;;;;;;;;;;;;5038507;28;19913;-86
2021/10/17 15:54:45;;;;;;;;;;;;;;;;;;5038398;28;19943;-85
2021/10/17 15:57:11;;;;;;;;;;;;;;;;;;5037821;28;19920;-88
2021/10/17 15:59:39;;;;;;;;;;;;;;;;;;5021628;28;22573;-86
2021/10/17 16:02:06;;;;;;;;;;;;;;;;;;5040254;28;19920;-85
2021/10/17 16:04:31;;;;;;;;;;;;;;;;;;5038152;28;19947;-85
2021/10/17 16:06:57;;;;;;;;;;;;;;;;;;5073825;28;19916;-88
2021/10/17 16:09:23;;;;;;;;;;;;;;;;;;5058086;28;19912;-87
2021/10/17 16:11:50;;;;;;;;;;;;;;;;;;5055731;28;20293;-86
2021/10/17 16:14:15;;;;;;;;;;;;;;;;;;5054389;28;19920;-84
2021/10/17 16:16:42;;;;;;;;;;;;;;;;;;5054885;28;20376;-84
2021/10/17 16:19:08;;;;;;;;;;;;;;;;;;5049350;28;20282;-87
2021/10/17 16:21:34;;;;;;;;;;;;;;;;;;5042211;28;19955;-87
2021/10/17 16:24:02;;;;;;;;;;;;;;;;;;5070976;28;19978;-85
2021/10/17 16:26:28;;;;;;;;;;;;;;;;;;5062406;28;20452;-85
2021/10/17 16:28:53;;;;;;;;;;;;;;;;;;5040134;28;19933;-84
2021/10/17 16:31:25;;;;;;;;;;;;;;;;;;5069806;28;19957;-85
2021/10/17 16:33:50;;;;;;;;;;;;;;;;;;5058106;28;19917;-84
2021/10/17 16:36:18;;;;;;;;;;;;;;;;;;5057595;28;20323;-84
2021/10/17 16:38:45;;;;;;;;;;;;;;;;;;5053338;28;19932;-84
2021/10/17 16:41:10;;;;;;;;;;;;;;;;;;5056054;28;19920;-84